Time;durP1;ratioP1;P1;durP2;ratioP2;P2;SDS_P1;SDS_P2;PMS_P1;PMS_P2;Temp;Humidity;BMP_temperature;BMP_pressure;BME280_temperature;BME280_humidity;BME280_pressure;Samples;Min_cycle;Max_cycle;Signal;HPM_P1;HPM_P2
2023/09/05 00:00:10;;;;;;;0.00;0.00;;;15.50;99.90;;;;;;5086005;28;20443;-77
2023/09/05 00:02:40;;;;;;;0.00;0.00;;;15.50;99.90;;;;;;5085087;28;20438;-77
2023/09/05 00:05:07;;;;;;;0.00;0.00;;;15.30;99.90;;;;;;5071487;28;20451;-77
2023/09/05 00:07:35;;;;;;;0.00;0.00;;;15.40;99.90;;;;;;5085990;28;20490;-77
2023/09/05 00:10:04;;;;;;;0.00;0.00;;;15.50;99.90;;;;;;5069993;28;20424;-77
2023/09/05 00:12:30;;;;;;;0.00;0.00;;;15.40;99.90;;;;;;5083092;28;20977;-77
2023/09/05 00:14:56;;;;;;;0.00;0.00;;;15.60;99.90;;;;;;5074008;28;20457;-77
2023/09/05 00:17:21;;;;;;;0.00;0.00;;;15.60;99.90;;;;;;5092478;28;20450;-77
2023/09/05 00:19:49;;;;;;;0.00;0.00;;;15.60;99.90;;;;;;5075854;28;20186;-77
2023/09/05 00:22:14;;;;;;;0.00;0.00;;;15.40;99.90;;;;;;5070820;28;20885;-77
2023/09/05 00:24:41;;;;;;;0.00;0.00;;;15.50;99.90;;;;;;5088990;28;20514;-77
2023/09/05 00:27:09;;;;;;;0.00;0.00;;;15.50;99.90;;;;;;5073182;28;20255;-77
2023/09/05 00:29:35;;;;;;;0.00;0.00;;;15.40;99.90;;;;;;5072812;28;20431;-77
2023/09/05 00:32:03;;;;;;;0.00;0.00;;;15.60;99.90;;;;;;5086114;28;20450;-77
2023/09/05 00:34:31;;;;;;;0.00;0.00;;;15.60;99.90;;;;;;5085953;28;20308;-77
2023/09/05 00:36:58;;;;;;;0.00;0.00;;;15.50;99.90;;;;;;5071898;28;20440;-77
2023/09/05 00:39:27;;;;;;;0.00;0.00;;;15.50;99.90;;;;;;5071592;28;20450;-77
2023/09/05 00:41:56;;;;;;;0.00;0.00;;;15.40;99.90;;;;;;5052469;28;20931;-77
2023/09/05 00:44:24;;;;;;;0.00;0.00;;;15.50;99.90;;;;;;5071463;28;20464;-77
2023/09/05 00:46:52;;;;;;;0.00;0.00;;;15.40;99.90;;;;;;5051495;28;21025;-77
2023/09/05 00:49:20;;;;;;;0.00;0.00;;;15.40;99.90;;;;;;5072293;28;20485;-77
2023/09/05 00:51:50;;;;;;;0.00;0.00;;;15.40;99.90;;;;;;5055396;28;20450;-77
2023/09/05 00:54:16;;;;;;;0.00;0.00;;;15.40;99.90;;;;;;5093478;28;20956;-76
2023/09/05 00:56:43;;;;;;;0.00;0.00;;;15.40;99.90;;;;;;5071914;28;20446;-77
2023/09/05 00:59:09;;;;;;;0.00;0.00;;;15.30;99.90;;;;;;5085847;28;20440;-77
2023/09/05 01:01:35;;;;;;;0.00;0.00;;;15.30;99.90;;;;;;5071765;28;20990;-77
2023/09/05 01:04:01;;;;;;;0.00;0.00;;;15.40;99.90;;;;;;5082187;28;20435;-77
2023/09/05 01:06:56;;;;;;;0.00;0.00;;;15.30;99.90;;;;;;5083520;28;20221;-77
2023/09/05 01:09:50;;;;;;;0.00;0.00;;;15.30;99.90;;;;;;5072738;28;20236;-77
2023/09/05 01:12:17;;;;;;;0.00;0.00;;;15.20;99.90;;;;;;5062924;28;20454;-77
2023/09/05 01:14:42;;;;;;;0.00;0.00;;;15.00;99.90;;;;;;5070460;28;20436;-77
2023/09/05 01:17:08;;;;;;;0.00;0.00;;;15.00;99.90;;;;;;5069302;28;20463;-77
2023/09/05 01:19:38;;;;;;;0.00;0.00;;;15.10;99.90;;;;;;5075402;28;20573;-77
2023/09/05 01:22:13;;;;;;;0.00;0.00;;;15.00;99.90;;;;;;5078563;28;20232;-77
2023/09/05 01:24:39;;;;;;;0.00;0.00;;;14.90;99.90;;;;;;5071309;28;20832;-77
2023/09/05 01:27:07;;;;;;;0.00;0.00;;;14.90;99.90;;;;;;5070789;28;20475;-77
2023/09/05 01:29:39;;;;;;;0.00;0.00;;;14.80;99.90;;;;;;5069052;28;20436;-77
2023/09/05 01:32:07;;;;;;;0.00;0.00;;;14.90;99.90;;;;;;5073329;28;20455;-77
2023/09/05 01:34:33;;;;;;;0.00;0.00;;;14.90;99.90;;;;;;5080044;28;20466;-77
2023/09/05 01:36:58;;;;;;;0.00;0.00;;;14.90;99.90;;;;;;5091718;28;20450;-77
2023/09/05 01:39:24;;;;;;;0.00;0.00;;;14.80;99.90;;;;;;5092045;28;20174;-77
2023/09/05 01:41:50;;;;;;;0.00;0.00;;;14.80;99.90;;;;;;5090161;28;20185;-77
2023/09/05 01:44:15;;;;;;;0.00;0.00;;;14.70;99.90;;;;;;5095333;28;20177;-77
2023/09/05 01:46:41;;;;;;;0.00;0.00;;;14.70;99.90;;;;;;5094799;28;20220;-76
2023/09/05 01:49:07;;;;;;;0.00;0.00;;;14.70;99.90;;;;;;5097857;28;20246;-77
2023/09/05 01:51:32;;;;;;;0.00;0.00;;;14.70;99.90;;;;;;5073913;28;20184;-77
2023/09/05 01:53:58;;;;;;;0.00;0.00;;;14.60;99.90;;;;;;5091605;28;20637;-77
2023/09/05 01:56:23;;;;;;;0.00;0.00;;;14.70;99.90;;;;;;5089973;28;20188;-77
2023/09/05 01:58:49;;;;;;;0.00;0.00;;;14.70;99.90;;;;;;5091939;28;20177;-77
2023/09/05 02:01:14;;;;;;;0.00;0.00;;;14.70;99.90;;;;;;5072274;28;20726;-77
2023/09/05 02:03:40;;;;;;;0.00;0.00;;;14.80;99.90;;;;;;5104102;28;20184;-77
2023/09/05 02:06:05;;;;;;;0.00;0.00;;;14.90;99.90;;;;;;5091969;28;20219;-76
2023/09/05 02:08:34;;;;;;;0.00;0.00;;;15.00;99.90;;;;;;5091198;28;20173;-77
2023/09/05 02:11:00;;;;;;;0.00;0.00;;;14.80;99.90;;;;;;5069411;28;20189;-77
2023/09/05 02:13:26;;;;;;;0.00;0.00;;;14.80;99.90;;;;;;5090585;28;20435;-77
2023/09/05 02:15:51;;;;;;;0.00;0.00;;;14.80;99.90;;;;;;5090062;28;20485;-77
2023/09/05 02:18:17;;;;;;;0.00;0.00;;;14.80;99.90;;;;;;5100309;28;20192;-77
2023/09/05 02:20:42;;;;;;;0.00;0.00;;;14.70;99.90;;;;;;5104868;28;20228;-77
2023/09/05 02:23:08;;;;;;;0.00;0.00;;;14.60;99.90;;;;;;5090067;27;20525;-77
2023/09/05 02:25:34;;;;;;;0.00;0.00;;;14.60;99.90;;;;;;5090238;28;20843;-77
2023/09/05 02:27:59;;;;;;;0.00;0.00;;;14.80;99.90;;;;;;5090291;28;20197;-77
2023/09/05 02:30:29;;;;;;;0.00;0.00;;;14.90;99.90;;;;;;5072010;28;20203;-76
2023/09/05 02:32:56;;;;;;;0.00;0.00;;;14.90;99.90;;;;;;5072724;28;20283;-77
2023/09/05 02:35:23;;;;;;;0.00;0.00;;;14.90;99.90;;;;;;5087425;28;20482;-77
2023/09/05 02:37:52;;;;;;;0.00;0.00;;;15.00;99.90;;;;;;5088266;28;20457;-77
2023/09/05 02:40:18;;;;;;;0.00;0.00;;;15.00;99.90;;;;;;5100561;28;20428;-77
2023/09/05 02:42:44;;;;;;;0.00;0.00;;;14.80;99.90;;;;;;5074942;28;20447;-77
2023/09/05 02:45:10;;;;;;;0.00;0.00;;;14.60;99.90;;;;;;5093367;28;20438;-76
2023/09/05 02:47:36;;;;;;;0.00;0.00;;;14.70;99.90;;;;;;5076458;28;21054;-77
2023/09/05 02:50:02;;;;;;;0.00;0.00;;;14.70;99.90;;;;;;5090546;28;20415;-77
2023/09/05 02:52:29;;;;;;;0.00;0.00;;;14.70;99.90;;;;;;5089133;28;20216;-77
2023/09/05 02:54:54;;;;;;;0.00;0.00;;;14.60;99.90;;;;;;5090338;28;20930;-77
2023/09/05 02:57:21;;;;;;;0.00;0.00;;;14.50;99.90;;;;;;5104642;28;20443;-77
2023/09/05 02:59:47;;;;;;;0.00;0.00;;;14.80;99.90;;;;;;5092145;28;20177;-77
2023/09/05 03:02:12;;;;;;;0.00;0.00;;;14.80;99.90;;;;;;5077306;28;20472;-77
2023/09/05 03:04:38;;;;;;;0.00;0.00;;;14.60;99.90;;;;;;5088174;28;20189;-77
2023/09/05 03:07:03;;;;;;;0.00;0.00;;;14.40;99.90;;;;;;5077685;28;20228;-77
2023/09/05 03:09:29;;;;;;;0.00;0.00;;;14.40;99.90;;;;;;5106731;28;20182;-77
2023/09/05 03:11:55;;;;;;;0.00;0.00;;;14.40;99.90;;;;;;5089442;28;20213;-78
2023/09/05 03:14:21;;;;;;;0.00;0.00;;;14.70;99.90;;;;;;5085219;28;20435;-77
2023/09/05 03:16:46;;;;;;;0.00;0.00;;;14.70;99.90;;;;;;5087682;28;20216;-77
2023/09/05 03:19:12;;;;;;;0.00;0.00;;;14.70;99.90;;;;;;5089767;28;20439;-77
2023/09/05 03:21:38;;;;;;;0.00;0.00;;;14.70;99.90;;;;;;5082640;28;20644;-77
2023/09/05 03:24:04;;;;;;;0.00;0.00;;;14.50;99.90;;;;;;5101542;28;20657;-77
2023/09/05 03:26:30;;;;;;;0.00;0.00;;;14.50;99.90;;;;;;5091031;28;20577;-77
2023/09/05 03:28:56;;;;;;;0.00;0.00;;;14.40;99.90;;;;;;5091503;28;20526;-77
2023/09/05 03:31:23;;;;;;;0.00;0.00;;;14.60;99.90;;;;;;5090764;28;20185;-77
2023/09/05 03:33:50;;;;;;;0.00;0.00;;;14.70;99.90;;;;;;5110416;28;20703;-77
2023/09/05 03:36:15;;;;;;;0.00;0.00;;;14.60;99.90;;;;;;5095456;28;20533;-76
2023/09/05 03:38:41;;;;;;;0.00;0.00;;;14.30;99.90;;;;;;5091396;28;20531;-76
2023/09/05 03:41:07;;;;;;;0.00;0.00;;;14.20;99.90;;;;;;5087689;28;20216;-77
2023/09/05 03:43:33;;;;;;;0.00;0.00;;;14.20;99.90;;;;;;5082899;28;20269;-77
2023/09/05 03:45:59;;;;;;;0.00;0.00;;;14.20;99.90;;;;;;5097236;28;21069;-77
2023/09/05 03:48:24;;;;;;;0.00;0.00;;;14.00;99.90;;;;;;5110361;28;20200;-77
2023/09/05 03:50:50;;;;;;;0.00;0.00;;;14.00;99.90;;;;;;5114206;28;20414;-77
2023/09/05 03:53:15;;;;;;;0.00;0.00;;;14.00;99.90;;;;;;5114236;28;20263;-76
2023/09/05 03:55:41;;;;;;;0.00;0.00;;;14.00;99.90;;;;;;5096105;28;20172;-77
2023/09/05 03:58:07;;;;;;;0.00;0.00;;;13.90;99.90;;;;;;5099876;28;20383;-77
2023/09/05 04:00:33;;;;;;;0.00;0.00;;;13.80;99.90;;;;;;5091295;28;20243;-77
2023/09/05 04:02:59;;;;;;;0.00;0.00;;;13.90;99.90;;;;;;5094042;28;20208;-77
2023/09/05 04:05:25;;;;;;;0.00;0.00;;;14.10;99.90;;;;;;5091215;28;20455;-77
2023/09/05 04:07:50;;;;;;;0.00;0.00;;;14.20;99.90;;;;;;5088446;28;20939;-77
2023/09/05 04:10:16;;;;;;;0.00;0.00;;;14.20;99.90;;;;;;5110767;28;20604;-77
2023/09/05 04:12:41;;;;;;;0.00;0.00;;;14.10;99.90;;;;;;5076026;28;20202;-77
2023/09/05 04:15:07;;;;;;;0.00;0.00;;;14.00;99.90;;;;;;5075097;28;20182;-77
2023/09/05 04:17:33;;;;;;;0.00;0.00;;;14.20;99.90;;;;;;5097095;28;20212;-77
2023/09/05 04:19:58;;;;;;;0.00;0.00;;;14.30;99.90;;;;;;5098556;28;20545;-77
2023/09/05 04:22:26;;;;;;;0.00;0.00;;;14.40;99.90;;;;;;5093339;28;20258;-77
2023/09/05 04:24:54;;;;;;;0.00;0.00;;;14.30;99.90;;;;;;5083805;28;20189;-77
2023/09/05 04:27:21;;;;;;;0.00;0.00;;;14.20;99.90;;;;;;5075192;28;20513;-76
2023/09/05 04:29:50;;;;;;;0.00;0.00;;;14.30;99.90;;;;;;5090649;28;20838;-77
2023/09/05 04:32:30;;;;;;;0.00;0.00;;;14.30;99.90;;;;;;5084118;28;20533;-76
2023/09/05 04:35:00;;;;;;;0.00;0.00;;;14.20;99.90;;;;;;5101201;28;20454;-77
2023/09/05 04:37:27;;;;;;;0.00;0.00;;;14.20;99.90;;;;;;5103174;28;20442;-77
2023/09/05 04:39:54;;;;;;;0.00;0.00;;;14.00;99.90;;;;;;5083526;28;20441;-77
2023/09/05 04:42:21;;;;;;;0.00;0.00;;;14.10;99.90;;;;;;5108515;28;20529;-77
2023/09/05 04:44:50;;;;;;;0.00;0.00;;;14.30;99.90;;;;;;5104885;28;20439;-77
2023/09/05 04:47:24;;;;;;;0.00;0.00;;;14.30;99.90;;;;;;5085466;28;20487;-77
2023/09/05 04:49:52;;;;;;;0.00;0.00;;;14.20;99.90;;;;;;5091073;28;20601;-77
2023/09/05 04:52:19;;;;;;;0.00;0.00;;;14.00;99.90;;;;;;5092609;28;20427;-77
2023/09/05 04:54:45;;;;;;;0.00;0.00;;;14.00;99.90;;;;;;5073604;28;20470;-76
2023/09/05 04:57:12;;;;;;;0.00;0.00;;;14.00;99.90;;;;;;5085509;28;20535;-77
2023/09/05 04:59:38;;;;;;;0.00;0.00;;;14.20;99.90;;;;;;5085709;28;20243;-77
2023/09/05 05:02:04;;;;;;;0.00;0.00;;;14.20;99.90;;;;;;5083443;28;20958;-77
2023/09/05 05:04:30;;;;;;;0.00;0.00;;;14.20;99.90;;;;;;5079576;28;20243;-77
2023/09/05 05:06:56;;;;;;;0.00;0.00;;;14.10;99.90;;;;;;5071757;28;20225;-75
2023/09/05 05:09:21;;;;;;;0.00;0.00;;;14.00;99.90;;;;;;5082115;28;20186;-77
2023/09/05 05:11:47;;;;;;;0.00;0.00;;;13.90;99.90;;;;;;5069042;28;20443;-77
2023/09/05 05:14:12;;;;;;;0.00;0.00;;;13.80;99.90;;;;;;5087302;28;20197;-76
2023/09/05 05:16:38;;;;;;;0.00;0.00;;;13.70;99.90;;;;;;5083042;28;20681;-75
2023/09/05 05:19:04;;;;;;;0.00;0.00;;;13.70;99.90;;;;;;5082105;28;20193;-74
2023/09/05 05:21:30;;;;;;;0.00;0.00;;;13.70;99.90;;;;;;5064728;28;20196;-75
2023/09/05 05:23:55;;;;;;;0.00;0.00;;;13.60;99.90;;;;;;5091251;28;20186;-74
2023/09/05 05:26:21;;;;;;;0.00;0.00;;;13.60;99.90;;;;;;5089219;28;20486;-74
2023/09/05 05:28:46;;;;;;;0.00;0.00;;;13.60;99.90;;;;;;5086933;28;20293;-75
2023/09/05 05:31:13;;;;;;;0.00;0.00;;;13.70;99.90;;;;;;5080556;28;20194;-75
2023/09/05 05:33:38;;;;;;;0.00;0.00;;;13.70;99.90;;;;;;5085766;28;20220;-75
2023/09/05 05:36:04;;;;;;;0.00;0.00;;;13.70;99.90;;;;;;5090445;28;21249;-74
2023/09/05 05:38:30;;;;;;;0.00;0.00;;;13.70;99.90;;;;;;5062000;28;20677;-75
2023/09/05 05:40:57;;;;;;;0.00;0.00;;;13.70;99.90;;;;;;5089538;28;20225;-75
2023/09/05 05:43:29;;;;;;;0.00;0.00;;;13.90;99.90;;;;;;5065782;28;20194;-75
2023/09/05 05:45:54;;;;;;;0.00;0.00;;;14.20;99.90;;;;;;5079985;28;20970;-75
2023/09/05 05:48:20;;;;;;;0.00;0.00;;;14.20;99.90;;;;;;5089926;28;20459;-75
2023/09/05 05:50:45;;;;;;;0.00;0.00;;;14.30;99.90;;;;;;5103124;28;20186;-75
2023/09/05 05:53:12;;;;;;;0.00;0.00;;;14.40;99.90;;;;;;5096156;28;20181;-75
2023/09/05 05:55:37;;;;;;;0.00;0.00;;;14.50;99.90;;;;;;5088015;28;20193;-75
2023/09/05 05:58:03;;;;;;;0.00;0.00;;;14.60;99.90;;;;;;5091286;28;20443;-75
2023/09/05 06:00:29;;;;;;;0.00;0.00;;;14.80;99.90;;;;;;5084088;28;20399;-75
2023/09/05 06:02:58;;;;;;;0.00;0.00;;;15.30;99.90;;;;;;5093311;28;20187;-75
2023/09/05 06:05:24;;;;;;;0.00;0.00;;;15.50;99.90;;;;;;5087352;28;20427;-75
2023/09/05 06:07:49;;;;;;;0.00;0.00;;;15.70;99.90;;;;;;5084227;28;20447;-75
2023/09/05 06:10:15;;;;;;;0.00;0.00;;;15.70;99.90;;;;;;5078693;28;20184;-75
2023/09/05 06:12:41;;;;;;;0.00;0.00;;;15.90;99.90;;;;;;5085503;28;20197;-75
2023/09/05 06:15:08;;;;;;;0.00;0.00;;;15.80;99.90;;;;;;5083009;28;20930;-76
2023/09/05 06:17:33;;;;;;;0.00;0.00;;;15.90;99.90;;;;;;5066385;28;20204;-78
2023/09/05 06:19:59;;;;;;;0.00;0.00;;;16.10;99.90;;;;;;5074785;28;20443;-78
2023/09/05 06:22:24;;;;;;;0.00;0.00;;;16.20;99.90;;;;;;5085634;28;20213;-77
2023/09/05 06:24:50;;;;;;;0.00;0.00;;;16.30;99.90;;;;;;5063969;28;20185;-78
2023/09/05 06:27:15;;;;;;;0.00;0.00;;;16.60;99.90;;;;;;5075498;28;20214;-78
2023/09/05 06:29:41;;;;;;;0.00;0.00;;;17.10;99.90;;;;;;5071358;28;20186;-78
2023/09/05 06:32:06;;;;;;;0.00;0.00;;;17.30;99.90;;;;;;5088017;28;20189;-78
2023/09/05 06:34:32;;;;;;;0.00;0.00;;;17.50;99.90;;;;;;5077006;28;20226;-78
2023/09/05 06:36:58;;;;;;;0.00;0.00;;;17.50;99.90;;;;;;5079653;28;20201;-78
2023/09/05 06:39:23;;;;;;;0.00;0.00;;;17.50;99.90;;;;;;5088209;28;20178;-78
2023/09/05 06:41:49;;;;;;;0.00;0.00;;;17.50;99.90;;;;;;5088470;28;20633;-78
2023/09/05 06:44:15;;;;;;;0.00;0.00;;;17.60;99.90;;;;;;5079104;28;20727;-78
2023/09/05 06:46:41;;;;;;;0.00;0.00;;;17.60;99.90;;;;;;5078736;28;20270;-77
2023/09/05 06:49:06;;;;;;;0.00;0.00;;;17.70;99.90;;;;;;5075455;28;20446;-78
2023/09/05 06:51:32;;;;;;;0.00;0.00;;;17.80;99.90;;;;;;5082677;28;20492;-78
2023/09/05 06:53:58;;;;;;;0.00;0.00;;;17.80;99.90;;;;;;5076130;28;20189;-78
2023/09/05 06:56:24;;;;;;;0.00;0.00;;;17.90;99.90;;;;;;5076589;28;20178;-77
2023/09/05 06:58:50;;;;;;;0.00;0.00;;;18.00;99.90;;;;;;5083576;28;20494;-78
2023/09/05 07:01:15;;;;;;;0.00;0.00;;;18.00;99.90;;;;;;5061507;28;20435;-78
2023/09/05 07:03:41;;;;;;;0.00;0.00;;;18.10;99.90;;;;;;5077468;28;20209;-78
2023/09/05 07:06:06;;;;;;;0.00;0.00;;;18.10;99.90;;;;;;5081027;28;20217;-78
2023/09/05 07:08:32;;;;;;;0.00;0.00;;;18.30;99.90;;;;;;5085844;28;20264;-77
2023/09/05 07:10:57;;;;;;;0.00;0.00;;;18.30;99.90;;;;;;5053502;28;20665;-77
2023/09/05 07:13:25;;;;;;;0.00;0.00;;;18.40;99.90;;;;;;5079281;28;20250;-77
2023/09/05 07:15:51;;;;;;;0.00;0.00;;;18.40;99.90;;;;;;5075578;28;20181;-78
2023/09/05 07:18:17;;;;;;;0.00;0.00;;;18.50;99.90;;;;;;5090073;28;20430;-78
2023/09/05 07:20:42;;;;;;;0.00;0.00;;;18.50;99.90;;;;;;5098006;28;20849;-78
2023/09/05 07:23:09;;;;;;;0.00;0.00;;;18.70;99.90;;;;;;5110217;28;20173;-79
2023/09/05 07:25:38;;;;;;;0.00;0.00;;;18.80;99.90;;;;;;5090237;28;20185;-78
2023/09/05 07:28:05;;;;;;;0.00;0.00;;;18.90;99.90;;;;;;5087638;28;20458;-78
2023/09/05 07:30:32;;;;;;;0.00;0.00;;;18.90;99.90;;;;;;5088018;28;20945;-78
2023/09/05 07:32:58;;;;;;;0.00;0.00;;;19.10;99.90;;;;;;5093959;28;20448;-79
2023/09/05 07:35:24;;;;;;;0.00;0.00;;;19.00;99.90;;;;;;5077187;28;20467;-78
2023/09/05 07:37:51;;;;;;;0.00;0.00;;;19.10;99.90;;;;;;5095537;28;20303;-78
2023/09/05 07:40:16;;;;;;;0.00;0.00;;;19.30;99.90;;;;;;5066423;28;20458;-78
2023/09/05 07:42:42;;;;;;;0.00;0.00;;;19.40;99.90;;;;;;5064416;28;20439;-78
2023/09/05 07:45:09;;;;;;;0.00;0.00;;;19.60;99.90;;;;;;5098852;28;20206;-78
2023/09/05 07:47:35;;;;;;;0.00;0.00;;;19.50;99.90;;;;;;5089894;28;20350;-78
2023/09/05 07:50:01;;;;;;;0.00;0.00;;;19.70;99.90;;;;;;5069568;28;20564;-78
2023/09/05 07:52:27;;;;;;;0.00;0.00;;;19.80;99.90;;;;;;5082321;28;20208;-78
2023/09/05 07:54:53;;;;;;;0.00;0.00;;;20.20;99.90;;;;;;5090327;28;20442;-79
2023/09/05 07:57:18;;;;;;;0.00;0.00;;;20.20;99.90;;;;;;5079129;28;20215;-78
2023/09/05 07:59:44;;;;;;;0.00;0.00;;;20.50;99.90;;;;;;5085496;28;20195;-78
2023/09/05 08:02:10;;;;;;;0.00;0.00;;;20.70;99.90;;;;;;5064764;28;20189;-78
2023/09/05 08:04:38;;;;;;;0.00;0.00;;;21.00;99.90;;;;;;5088825;28;20443;-76
2023/09/05 08:07:05;;;;;;;0.00;0.00;;;21.30;99.90;;;;;;5064490;28;20493;-76
2023/09/05 08:09:30;;;;;;;0.00;0.00;;;21.30;99.90;;;;;;5078286;28;20450;-76
2023/09/05 08:11:56;;;;;;;0.00;0.00;;;21.20;99.90;;;;;;5081275;28;20444;-76
2023/09/05 08:14:22;;;;;;;0.00;0.00;;;21.30;99.90;;;;;;5075854;28;20554;-76
2023/09/05 08:16:48;;;;;;;0.00;0.00;;;21.30;99.90;;;;;;5063320;28;20570;-76
2023/09/05 08:19:14;;;;;;;0.00;0.00;;;21.20;99.90;;;;;;5067430;28;20185;-76
2023/09/05 08:21:39;;;;;;;0.00;0.00;;;21.20;99.90;;;;;;5070956;28;20446;-76
2023/09/05 08:24:05;;;;;;;0.00;0.00;;;21.00;99.90;;;;;;5085086;28;20193;-76
2023/09/05 08:26:34;;;;;;;0.00;0.00;;;21.20;99.90;;;;;;5084669;28;20206;-76
2023/09/05 08:29:03;;;;;;;0.00;0.00;;;21.40;99.90;;;;;;5083563;28;20177;-76
2023/09/05 08:31:32;;;;;;;0.00;0.00;;;21.50;99.90;;;;;;5087715;28;20956;-76
2023/09/05 08:33:58;;;;;;;0.00;0.00;;;21.30;99.90;;;;;;5088278;28;20561;-76
2023/09/05 08:36:24;;;;;;;0.00;0.00;;;21.40;99.90;;;;;;5092189;28;20451;-76
2023/09/05 08:38:50;;;;;;;0.00;0.00;;;21.40;99.90;;;;;;5083457;28;20439;-76
2023/09/05 08:41:15;;;;;;;0.00;0.00;;;21.50;99.90;;;;;;5072619;28;20552;-76
2023/09/05 08:43:41;;;;;;;0.00;0.00;;;21.60;99.90;;;;;;5089803;28;20184;-76
2023/09/05 08:46:08;;;;;;;0.00;0.00;;;21.60;99.90;;;;;;5085762;28;20680;-76
2023/09/05 08:48:34;;;;;;;0.00;0.00;;;21.80;99.90;;;;;;5080905;28;20645;-76
2023/09/05 08:51:00;;;;;;;0.00;0.00;;;22.00;99.90;;;;;;5089195;28;20508;-76
2023/09/05 08:53:40;;;;;;;0.00;0.00;;;22.20;99.90;;;;;;5073032;28;20185;-76
2023/09/05 08:56:07;;;;;;;0.00;0.00;;;22.40;99.90;;;;;;5085810;28;20443;-76
2023/09/05 08:58:34;;;;;;;0.00;0.00;;;22.40;99.90;;;;;;5087451;28;20439;-76
2023/09/05 09:00:59;;;;;;;0.00;0.00;;;22.70;99.90;;;;;;5088189;28;20920;-77
2023/09/05 09:03:26;;;;;;;0.00;0.00;;;23.20;99.90;;;;;;5090109;28;21005;-76
2023/09/05 09:05:52;;;;;;;0.00;0.00;;;23.30;99.90;;;;;;5089670;28;20594;-76
2023/09/05 09:08:19;;;;;;;0.00;0.00;;;23.20;99.90;;;;;;5091173;28;20452;-76
2023/09/05 09:11:04;;;;;;;0.00;0.00;;;23.30;99.90;;;;;;5088643;28;20439;-76
2023/09/05 09:13:30;;;;;;;0.00;0.00;;;23.30;99.90;;;;;;5090937;28;20420;-76
2023/09/05 09:15:55;;;;;;;0.00;0.00;;;23.50;99.90;;;;;;5087702;28;20930;-76
2023/09/05 09:18:22;;;;;;;0.00;0.00;;;23.70;99.90;;;;;;5089934;28;20185;-77
2023/09/05 09:20:51;;;;;;;0.00;0.00;;;23.80;99.90;;;;;;5083991;28;20184;-77
2023/09/05 09:23:27;;;;;;;0.00;0.00;;;23.80;99.90;;;;;;5086486;28;20469;-78
2023/09/05 09:25:54;;;;;;;0.00;0.00;;;24.40;99.90;;;;;;5082613;28;20495;-78
2023/09/05 09:28:28;;;;;;;0.00;0.00;;;24.70;99.90;;;;;;5085536;28;21088;-78
2023/09/05 09:30:59;;;;;;;0.00;0.00;;;24.40;99.90;;;;;;5084853;28;20435;-77
2023/09/05 09:33:25;;;;;;;0.00;0.00;;;24.70;99.90;;;;;;5089537;28;20444;-78
2023/09/05 09:36:04;;;;;;;0.00;0.00;;;24.90;99.90;;;;;;5092276;28;20438;-78
2023/09/05 09:38:30;;;;;;;0.00;0.00;;;25.00;99.90;;;;;;5086572;28;20193;-78
2023/09/05 09:41:00;;;;;;;0.00;0.00;;;25.00;99.90;;;;;;5068415;28;20454;-78
2023/09/05 09:43:29;;;;;;;0.00;0.00;;;25.20;99.90;;;;;;5079686;28;20435;-78
2023/09/05 09:45:57;;;;;;;0.00;0.00;;;24.50;99.90;;;;;;5066714;28;20470;-78
2023/09/05 09:48:26;;;;;;;0.00;0.00;;;24.50;99.90;;;;;;5087826;28;20447;-78
2023/09/05 09:50:53;;;;;;;0.00;0.00;;;24.40;99.90;;;;;;5071418;28;20507;-78
2023/09/05 09:53:28;;;;;;;0.00;0.00;;;24.30;99.90;;;;;;5085416;28;20530;-78
2023/09/05 09:55:55;;;;;;;0.00;0.00;;;24.00;99.90;;;;;;5080178;28;20984;-77
2023/09/05 09:58:24;;;;;;;0.00;0.00;;;24.00;99.90;;;;;;5088756;28;20443;-78
2023/09/05 10:00:51;;;;;;;0.00;0.00;;;24.10;99.90;;;;;;5087013;28;20431;-77
2023/09/05 10:03:18;;;;;;;0.00;0.00;;;24.30;99.90;;;;;;5073831;28;20420;-78
2023/09/05 10:05:45;;;;;;;0.00;0.00;;;24.50;99.90;;;;;;5089487;28;20479;-77
2023/09/05 10:08:12;;;;;;;0.00;0.00;;;24.20;99.90;;;;;;5068314;28;20533;-77
2023/09/05 10:10:39;;;;;;;0.00;0.00;;;24.40;99.90;;;;;;5085202;28;20431;-78
2023/09/05 10:13:07;;;;;;;0.00;0.00;;;25.00;99.90;;;;;;5085260;28;20451;-78
2023/09/05 10:15:36;;;;;;;0.00;0.00;;;25.30;99.90;;;;;;5069345;28;20438;-78
2023/09/05 10:18:02;;;;;;;0.00;0.00;;;25.20;99.90;;;;;;5084444;28;20447;-77
2023/09/05 10:20:28;;;;;;;0.00;0.00;;;25.20;99.90;;;;;;5073336;28;20493;-78
2023/09/05 10:22:53;;;;;;;0.00;0.00;;;25.20;99.90;;;;;;5080571;28;20994;-77
2023/09/05 10:25:20;;;;;;;0.00;0.00;;;25.10;99.90;;;;;;5084533;28;20483;-78
2023/09/05 10:27:46;;;;;;;0.00;0.00;;;25.00;99.90;;;;;;5086361;28;20217;-78
2023/09/05 10:30:12;;;;;;;0.00;0.00;;;25.00;99.90;;;;;;5083160;28;20938;-78
2023/09/05 10:32:42;;;;;;;0.00;0.00;;;25.20;99.90;;;;;;5062507;28;20241;-77
2023/09/05 10:35:08;;;;;;;0.00;0.00;;;25.10;99.90;;;;;;5084894;28;20283;-77
2023/09/05 10:37:33;;;;;;;0.00;0.00;;;25.00;99.90;;;;;;5085898;28;20435;-77
2023/09/05 10:40:10;;;;;;;0.00;0.00;;;25.30;99.90;;;;;;5049274;28;20185;-77
2023/09/05 10:42:42;;;;;;;0.00;0.00;;;25.50;99.90;;;;;;5080676;28;20182;-77
2023/09/05 10:45:23;;;;;;;0.00;0.00;;;25.90;99.90;;;;;;5091115;28;20538;-77
2023/09/05 10:47:53;;;;;;;0.00;0.00;;;26.30;99.90;;;;;;5100212;28;20667;-77
2023/09/05 10:50:20;;;;;;;0.00;0.00;;;26.80;99.90;;;;;;5100889;28;20434;-77
2023/09/05 10:53:12;;;;;;;0.00;0.00;;;26.60;99.90;;;;;;5109982;28;20938;-77
2023/09/05 10:55:44;;;;;;;0.00;0.00;;;26.20;99.90;;;;;;5062397;28;20439;-77
2023/09/05 10:58:38;;;;;;;0.00;0.00;;;25.70;99.90;;;;;;5079926;28;21255;-77
2023/09/05 11:01:32;;;;;;;0.00;0.00;;;25.50;99.90;;;;;;5091718;28;20434;-77
2023/09/05 11:04:07;;;;;;;0.00;0.00;;;25.50;99.90;;;;;;5083774;28;20518;-77
2023/09/05 11:06:55;;;;;;;0.00;0.00;;;25.50;99.90;;;;;;5067968;28;20476;-77
2023/09/05 11:09:21;;;;;;;0.00;0.00;;;25.70;99.90;;;;;;5066604;28;20439;-78
2023/09/05 11:11:47;;;;;;;0.00;0.00;;;26.10;99.90;;;;;;5084504;28;20451;-77
2023/09/05 11:14:12;;;;;;;0.00;0.00;;;26.20;99.90;;;;;;5078736;28;20685;-77
2023/09/05 11:16:47;;;;;;;0.00;0.00;;;26.40;99.90;;;;;;5083868;28;20188;-78
2023/09/05 11:19:28;;;;;;;0.00;0.00;;;26.50;99.90;;;;;;5087652;28;20249;-75
2023/09/05 11:22:23;;;;;;;0.00;0.00;;;26.70;99.90;;;;;;5088435;28;20791;-75
2023/09/05 11:24:59;;;;;;;0.00;0.00;;;26.80;99.90;;;;;;5089973;28;20549;-75
2023/09/05 11:27:26;;;;;;;0.00;0.00;;;26.50;99.90;;;;;;5090414;28;20561;-75
2023/09/05 11:29:55;;;;;;;0.00;0.00;;;27.20;99.90;;;;;;5088295;28;20435;-75
2023/09/05 11:32:29;;;;;;;0.00;0.00;;;27.90;99.90;;;;;;5088984;28;20874;-76
2023/09/05 11:34:55;;;;;;;0.00;0.00;;;27.90;99.90;;;;;;5070850;28;20471;-75
2023/09/05 11:37:21;;;;;;;0.00;0.00;;;28.70;99.90;;;;;;5089056;28;20476;-76
2023/09/05 11:39:48;;;;;;;0.00;0.00;;;30.20;99.90;;;;;;5089158;28;20192;-76
2023/09/05 11:42:24;;;;;;;0.00;0.00;;;30.80;99.90;;;;;;5090508;28;20417;-76
2023/09/05 11:44:52;;;;;;;0.00;0.00;;;30.30;99.90;;;;;;5090497;28;20418;-76
2023/09/05 11:47:21;;;;;;;0.00;0.00;;;30.30;99.90;;;;;;5104888;28;20941;-75
2023/09/05 11:49:48;;;;;;;0.00;0.00;;;31.10;99.90;;;;;;5071316;28;20486;-75
2023/09/05 11:52:15;;;;;;;0.00;0.00;;;31.90;99.90;;;;;;5088927;28;20500;-76
2023/09/05 11:54:42;;;;;;;0.00;0.00;;;31.90;99.90;;;;;;5091279;28;20940;-74
2023/09/05 11:57:08;;;;;;;0.00;0.00;;;31.70;99.90;;;;;;5087817;28;20821;-74
2023/09/05 11:59:35;;;;;;;0.00;0.00;;;31.00;99.90;;;;;;5072136;28;20938;-75
2023/09/05 12:02:09;;;;;;;0.00;0.00;;;31.10;99.90;;;;;;5088849;28;20520;-74
2023/09/05 12:04:35;;;;;;;0.00;0.00;;;32.40;99.90;;;;;;5097268;27;20457;-73
2023/09/05 12:07:04;;;;;;;0.00;0.00;;;31.70;99.90;;;;;;5081729;28;21218;-74
2023/09/05 12:09:29;;;;;;;0.00;0.00;;;32.00;99.90;;;;;;5092207;28;20481;-74
2023/09/05 12:12:18;;;;;;;0.00;0.00;;;32.80;99.90;;;;;;5075498;28;20482;-74
2023/09/05 12:14:49;;;;;;;0.00;0.00;;;32.90;99.90;;;;;;5091546;28;20570;-74
2023/09/05 12:17:16;;;;;;;0.00;0.00;;;33.50;99.90;;;;;;5093795;28;20799;-73
2023/09/05 12:19:42;;;;;;;0.00;0.00;;;33.90;99.90;;;;;;5072689;28;20435;-74
2023/09/05 12:22:07;;;;;;;0.00;0.00;;;33.60;99.90;;;;;;5090882;28;20458;-73
2023/09/05 12:24:33;;;;;;;0.00;0.00;;;33.60;99.90;;;;;;5091455;28;20185;-74
2023/09/05 12:26:59;;;;;;;0.00;0.00;;;33.40;99.90;;;;;;5091988;28;20224;-75
2023/09/05 12:29:38;;;;;;;0.00;0.00;;;33.60;99.90;;;;;;5073195;28;20234;-75
2023/09/05 12:32:05;;;;;;;0.00;0.00;;;32.90;99.90;;;;;;5073633;28;20505;-75
2023/09/05 12:34:31;;;;;;;0.00;0.00;;;33.30;99.90;;;;;;5092871;28;20475;-75
2023/09/05 12:36:56;;;;;;;0.00;0.00;;;33.60;99.90;;;;;;5072680;28;21076;-75
2023/09/05 12:39:22;;;;;;;0.00;0.00;;;34.10;99.90;;;;;;5092520;28;20212;-75
2023/09/05 12:41:47;;;;;;;0.00;0.00;;;34.40;99.90;;;;;;5090147;28;20655;-75
2023/09/05 12:44:13;;;;;;;0.00;0.00;;;34.60;99.90;;;;;;5093248;28;20256;-74
2023/09/05 12:46:38;;;;;;;0.00;0.00;;;35.00;99.90;;;;;;5097471;28;20281;-75
2023/09/05 12:49:04;;;;;;;0.00;0.00;;;34.70;99.90;;;;;;5092619;28;20211;-75